VABBVAAH

Guest
Details From VABB - Bombay Mumbai Chhatrapati Shivaji Intl
To VAAH - AHMEDABAD
Flight Number -
Tags decoded
Created
Modified
Stats Distance 240 nm / 444 km
Max Altitude 0 ft / 0 m
Waypoints 2
Social Downloads 1
Likes 0
Share VATSIM

Download

Looking for another format? Having issues loading an existing format? Contact us
Advertisement - Login to hide

Notes

Requested: VABB SUR VAAH

Route

VABB VAAH

ID Type Via Altitude Latitude Longitude Leg Dist Tot Dist Heading (true) Name
O VABB APT - 0 ft / 0 m 19.08898˚ 72.86591˚ - 0 nm - Bombay Mumbai Chhatrapati Shivaji Intl
O VAAH APT - 0 ft / 0 m 23.07720˚ 72.63463˚ 239 nm 239 nm 357° / 357° AHMEDABAD

Altitude Profile

Advertisement - Login to hide

Weather


0- 5 10 15 20 25 30 35+ Temperature / ° C

Clouds and Precipitation
Forecast for 2017-12-19 00:00 UTC. Updated an hour ago

Ground ~20,000 ft ~40,000 ft Winds

VABB

Details ICAO VABB (BOM)
Name Bombay Mumbai Chhatrapati Shivaji Intl
Region India
Timezone Asia/Kolkata (UTC+5.5)
Stats Elevation 37 ft / 11 m (AMSL)
Location 19.088978° 72.865914°
Runways 2
Magnetic Variation 0.175° W

METAR

VABB 182200Z 03006KT 3000 FU FEW100 25/14 Q1015 NOSIG

Decode

TAF

Not found

Departure Runways

ID Width Length Bearing (true) Bearing (mag) Surface Threshold Offset Overrun Length
09 148 ft / 45 m 11,436 ft / 3,486 m 89.16° 89.34° Asphalt 465 ft / 142 m 0 ft / 0 m
14 150 ft / 46 m 9,606 ft / 2,928 m 134.33° 134.51° Asphalt 1,338 ft / 408 m 223 ft / 68 m
27 148 ft / 45 m 11,436 ft / 3,486 m 269.17° 269.35° Asphalt 1,581 ft / 482 m 0 ft / 0 m
32 150 ft / 46 m 9,606 ft / 2,928 m 314.34° 314.52° Asphalt 853 ft / 260 m 0 ft / 0 m

VAAH

Details ICAO VAAH (AMD)
Name AHMEDABAD
Region India
Timezone Asia/Kolkata (UTC+5.5)
Stats Elevation 189 ft / 58 m (AMSL)
Location 23.077196° 72.634632°
Runways 1
Magnetic Variation 0.479° E

METAR

VAAH 182200Z 08004KT 4000 FU SCT080 19/04 Q1019 NOSIG

Decode

TAF

TAF VAAH 181700Z 1818/1924 06005KT 4000 FUHZ FEW020 SCT080 BECMG 1901/1903 03005KT 2500 HZBR BECMG 1904/1906 09008KT 5000 FUHZ SCT020 SCT080 BECMG 1912/1914 05006KT 4000

Decode

Destination Runways

ID Width Length Bearing (true) Bearing (mag) Surface Threshold Offset Overrun Length
05 150 ft / 46 m 11,464 ft / 3,494 m 44.55° 44.07° Asphalt 0 ft / 0 m 210 ft / 64 m
23 150 ft / 46 m 11,464 ft / 3,494 m 224.56° 224.08° Asphalt 0 ft / 0 m 195 ft / 59 m

Approach Navaids

Runway Type Ident Frequency Range Bearing (true) Bearing (mag) Slope Elevation
23 Localiser AHD 110.30 MHz 18 nm / 33 km 224.70° 224.22° - 180 ft / 55 m (AMSL)
23 Glidescope AHD 110.30 MHz 10 nm / 19 km 224.56° 224.08° 3.00° 186 ft / 57 m (AMSL)
23 DME AHD 110.30 MHz 18 nm / 33 km - - - 180 ft / 55 m (AMSL)

Popular Alternatives